createdAt,value
2022-11-04T00:00:51.703Z,3.57
2022-11-04T00:03:26.561Z,2.07
2022-11-04T00:05:56.177Z,4.80
2022-11-04T00:08:33.435Z,3.20
2022-11-04T00:11:19.962Z,3.93
2022-11-04T00:13:55.557Z,4.53
2022-11-04T00:16:41.361Z,3.60
2022-11-04T00:19:16.569Z,3.90
2022-11-04T00:22:04.109Z,4.47
2022-11-04T00:24:52.453Z,4.90
2022-11-04T00:27:39.375Z,1.87
2022-11-04T00:30:16.419Z,6.17
2022-11-04T00:33:02.067Z,4.13
2022-11-04T00:35:37.593Z,3.73
2022-11-04T00:38:07.310Z,2.20
2022-11-04T00:40:42.575Z,5.20
2022-11-04T00:43:10.985Z,5.20
2022-11-04T00:45:46.629Z,6.00
2022-11-04T00:48:15.329Z,4.23
2022-11-04T00:50:50.486Z,2.77
2022-11-04T00:53:20.223Z,3.73
2022-11-04T00:55:55.415Z,2.77
2022-11-04T00:58:23.956Z,5.00
2022-11-04T01:01:05.502Z,4.40
2022-11-04T01:03:40.872Z,6.37
2022-11-04T01:06:15.494Z,5.53
2022-11-04T01:08:45.550Z,8.13
2022-11-04T01:11:20.635Z,5.07
2022-11-04T01:13:51.969Z,4.43
2022-11-04T01:19:00.761Z,8.60
2022-11-04T01:21:35.458Z,5.97
2022-11-04T01:24:06.974Z,5.17
2022-11-04T01:26:42.511Z,4.50
2022-11-04T01:29:10.890Z,5.63
2022-11-04T01:31:45.514Z,5.07
2022-11-04T01:34:13.955Z,6.67
2022-11-04T01:36:48.526Z,8.13
2022-11-04T01:39:18.046Z,7.90
2022-11-04T01:41:52.602Z,6.17
2022-11-04T01:44:50.506Z,6.27
2022-11-04T01:47:28.636Z,5.70
2022-11-04T01:50:01.489Z,8.80
2022-11-04T01:52:41.575Z,8.53
2022-11-04T01:55:17.712Z,5.13
2022-11-04T01:57:56.507Z,7.17
2022-11-04T02:00:44.765Z,6.17
2022-11-04T02:03:23.552Z,8.13
2022-11-04T02:05:53.385Z,12.20
2022-11-04T02:08:29.531Z,6.27
2022-11-04T02:11:07.586Z,8.53
2022-11-04T02:13:37.040Z,7.93
2022-11-04T02:16:21.672Z,5.77
2022-11-04T02:19:03.003Z,5.93
2022-11-04T02:22:06.474Z,9.87
2022-11-04T02:24:56.401Z,5.97
2022-11-04T02:27:44.513Z,8.40
2022-11-04T02:30:16.692Z,7.13
2022-11-04T02:33:08.622Z,6.93
2022-11-04T02:35:45.205Z,8.27
2022-11-04T02:38:28.715Z,6.03
2022-11-04T02:41:05.757Z,5.70
2022-11-04T02:43:46.519Z,6.27
2022-11-04T02:46:20.824Z,6.37
2022-11-04T02:49:01.724Z,7.30
2022-11-04T02:51:34.966Z,6.23
2022-11-04T02:54:15.679Z,6.67
2022-11-04T02:56:50.145Z,8.10
2022-11-04T02:59:30.492Z,7.00
2022-11-04T03:02:25.780Z,6.50
2022-11-04T03:05:01.713Z,6.37
2022-11-04T03:07:35.563Z,12.10
2022-11-04T03:10:16.872Z,6.83
2022-11-04T03:12:50.411Z,7.27
2022-11-04T03:15:30.551Z,6.17
2022-11-04T03:18:06.365Z,6.37
2022-11-04T03:20:44.573Z,6.97
2022-11-04T03:23:13.729Z,7.03
2022-11-04T03:25:53.551Z,7.23
2022-11-04T03:28:33.365Z,8.43
2022-11-04T03:31:12.554Z,6.87
2022-11-04T03:33:46.793Z,4.97
2022-11-04T03:36:21.635Z,6.17
2022-11-04T03:38:50.620Z,8.93
2022-11-04T03:41:29.657Z,6.87
2022-11-04T03:43:58.505Z,9.83
2022-11-04T03:46:33.562Z,8.53
2022-11-04T03:49:04.349Z,5.63
2022-11-04T03:51:39.559Z,5.93
2022-11-04T03:54:09.538Z,5.93
2022-11-04T03:57:03.656Z,7.30
2022-11-04T03:59:52.081Z,7.10
2022-11-04T04:02:41.617Z,7.37
2022-11-04T04:05:19.148Z,6.43
2022-11-04T04:08:00.790Z,5.20
2022-11-04T04:10:41.163Z,8.10
2022-11-04T04:13:33.659Z,8.63
2022-11-04T04:16:06.411Z,7.50
2022-11-04T04:18:46.652Z,9.00
2022-11-04T04:21:21.707Z,9.70
2022-11-04T04:24:17.760Z,7.67
2022-11-04T04:27:05.818Z,7.40
2022-11-04T04:29:41.623Z,3.87
2022-11-04T04:32:10.474Z,5.13
2022-11-04T04:34:45.656Z,6.23
2022-11-04T04:37:21.491Z,4.90
2022-11-04T04:40:22.096Z,7.37
2022-11-04T04:43:13.626Z,9.37
2022-11-04T04:45:51.810Z,9.03
2022-11-04T04:48:20.341Z,5.70
2022-11-04T04:50:58.699Z,6.23
2022-11-04T04:53:28.340Z,6.13
2022-11-04T04:56:03.837Z,5.77
2022-11-04T04:58:32.038Z,6.33
2022-11-04T05:01:06.696Z,7.63
2022-11-04T05:03:45.138Z,9.37
2022-11-04T05:06:20.710Z,5.63
2022-11-04T05:08:50.351Z,11.60
2022-11-04T05:11:27.296Z,6.73
2022-11-04T05:13:55.972Z,8.43
2022-11-04T05:16:30.819Z,9.53
2022-11-04T05:18:59.376Z,6.73
2022-11-04T05:21:33.733Z,6.47
2022-11-04T05:24:03.566Z,6.67
2022-11-04T05:26:38.776Z,9.57
2022-11-04T05:29:07.061Z,5.47
2022-11-04T05:31:41.771Z,7.10
2022-11-04T05:34:12.417Z,8.53
2022-11-04T05:36:47.709Z,4.43
2022-11-04T05:39:17.522Z,7.87
2022-11-04T05:41:52.760Z,7.10
2022-11-04T05:44:21.173Z,7.63
2022-11-04T05:46:55.722Z,7.97
2022-11-04T05:49:24.336Z,8.57
2022-11-04T05:51:58.845Z,10.63
2022-11-04T05:54:28.484Z,5.80
2022-11-04T05:57:03.867Z,6.13
2022-11-04T05:59:31.993Z,11.07
2022-11-04T06:02:06.857Z,7.67
2022-11-04T06:04:41.736Z,6.47
2022-11-04T06:07:16.752Z,7.97
2022-11-04T06:09:52.721Z,8.20
2022-11-04T06:12:20.864Z,6.27
2022-11-04T06:14:58.742Z,6.70
2022-11-04T06:17:27.574Z,7.37
2022-11-04T06:20:02.762Z,7.57
2022-11-04T06:22:30.889Z,7.03
2022-11-04T06:25:06.722Z,4.20
2022-11-04T06:27:35.508Z,5.53
2022-11-04T06:30:10.789Z,8.00
2022-11-04T06:32:38.963Z,7.97
2022-11-04T06:35:15.776Z,7.90
2022-11-04T06:37:43.933Z,5.90
2022-11-04T06:40:20.705Z,6.57
2022-11-04T06:42:50.609Z,7.37
2022-11-04T06:45:25.852Z,6.13
2022-11-04T06:47:54.229Z,5.43
2022-11-04T06:50:28.911Z,7.13
2022-11-04T06:52:57.031Z,8.43
2022-11-04T06:55:33.940Z,6.57
2022-11-04T06:58:02.495Z,5.87
2022-11-04T07:00:36.933Z,8.03
2022-11-04T07:03:12.411Z,6.07
2022-11-04T07:05:46.733Z,6.03
2022-11-04T07:08:15.246Z,6.20
2022-11-04T07:10:51.924Z,5.83
2022-11-04T07:13:20.373Z,7.47
2022-11-04T07:15:55.761Z,6.80
2022-11-04T07:18:24.037Z,8.47
2022-11-04T07:20:59.071Z,6.50
2022-11-04T07:23:27.717Z,7.57
2022-11-04T07:26:07.815Z,7.37
2022-11-04T07:28:36.878Z,7.87
2022-11-04T07:31:13.756Z,7.67
2022-11-04T07:33:42.396Z,6.97
2022-11-04T07:36:20.956Z,7.90
2022-11-04T07:38:49.995Z,9.03
2022-11-04T07:41:26.842Z,8.43
2022-11-04T07:43:55.291Z,8.63
2022-11-04T07:46:29.948Z,6.30
2022-11-04T07:48:59.302Z,6.97
2022-11-04T07:51:34.964Z,6.93
2022-11-04T07:54:03.724Z,6.87
2022-11-04T07:56:39.851Z,6.33
2022-11-04T07:59:08.162Z,6.33
2022-11-04T08:01:50.353Z,10.17
2022-11-04T08:04:25.030Z,6.13
2022-11-04T08:07:00.086Z,7.00
2022-11-04T08:09:28.334Z,8.63
2022-11-04T08:12:05.029Z,5.70
2022-11-04T08:14:33.575Z,7.33
2022-11-04T08:17:08.866Z,7.60
2022-11-04T08:19:37.169Z,6.30
2022-11-04T08:22:11.846Z,3.67
2022-11-04T08:24:40.857Z,5.63
2022-11-04T08:27:17.013Z,8.53
2022-11-04T08:29:45.477Z,6.17
2022-11-04T08:32:20.781Z,10.17
2022-11-04T08:34:49.273Z,6.00
2022-11-04T08:37:24.829Z,4.60
2022-11-04T08:39:53.162Z,7.87
2022-11-04T08:42:29.824Z,7.37
2022-11-04T08:44:58.295Z,7.47
2022-11-04T08:47:32.832Z,8.13
2022-11-04T08:50:01.296Z,8.57
2022-11-04T08:52:36.035Z,5.93
2022-11-04T08:55:04.298Z,8.17
2022-11-04T08:57:40.986Z,8.27
2022-11-04T09:00:10.182Z,7.53
2022-11-04T09:02:52.061Z,5.70
2022-11-04T09:05:29.029Z,7.87
2022-11-04T09:08:03.867Z,4.93
2022-11-04T09:10:32.054Z,5.07
2022-11-04T09:13:09.164Z,8.37
2022-11-04T09:15:37.902Z,5.40
2022-11-04T09:18:12.929Z,7.73
2022-11-04T09:20:42.228Z,6.53
2022-11-04T09:23:17.883Z,4.27
2022-11-04T09:25:46.089Z,6.67
2022-11-04T09:28:21.977Z,7.07
2022-11-04T09:30:50.670Z,6.53
2022-11-04T09:33:26.077Z,5.87
2022-11-04T09:35:57.823Z,8.07
2022-11-04T09:38:32.859Z,8.37
2022-11-04T09:41:03.099Z,9.00
2022-11-04T09:43:53.891Z,4.23
2022-11-04T09:46:23.277Z,6.07
2022-11-04T09:49:01.964Z,6.30
2022-11-04T09:51:53.213Z,5.17
2022-11-04T09:54:29.883Z,8.40
2022-11-04T09:57:00.690Z,3.03
2022-11-04T09:59:39.938Z,8.00
2022-11-04T10:02:59.843Z,6.73
2022-11-04T10:05:58.025Z,6.27
2022-11-04T10:09:01.921Z,8.57
2022-11-04T10:11:37.994Z,6.13
2022-11-04T10:14:35.332Z,7.43
2022-11-04T10:17:13.079Z,9.13
2022-11-04T10:19:59.898Z,7.37
2022-11-04T10:22:34.143Z,7.43
2022-11-04T10:25:17.915Z,4.93
2022-11-04T10:27:55.094Z,7.80
2022-11-04T10:30:25.029Z,6.40
2022-11-04T10:33:11.350Z,7.03
2022-11-04T10:35:43.853Z,6.87
2022-11-04T10:38:27.119Z,8.07
2022-11-04T10:40:57.869Z,10.40
2022-11-04T10:43:39.954Z,7.80
2022-11-04T10:46:35.718Z,6.67
2022-11-04T10:49:39.106Z,5.23
2022-11-04T10:52:19.261Z,8.73
2022-11-04T10:54:51.427Z,7.50
2022-11-04T10:57:29.045Z,9.00
2022-11-04T11:00:00.186Z,4.30
2022-11-04T11:02:55.930Z,8.07
2022-11-04T11:05:33.398Z,11.53
2022-11-04T11:08:08.015Z,10.07
2022-11-04T11:10:36.324Z,11.20
2022-11-04T11:13:13.988Z,8.87
2022-11-04T11:15:42.628Z,8.10
2022-11-04T11:18:23.293Z,8.27
2022-11-04T11:21:07.782Z,8.57
2022-11-04T11:23:48.978Z,9.67
2022-11-04T11:26:19.889Z,6.87
2022-11-04T11:29:03.001Z,6.27
2022-11-04T11:31:37.809Z,8.03
2022-11-04T11:34:15.045Z,8.63
2022-11-04T11:36:48.135Z,9.17
2022-11-04T11:39:29.083Z,8.17
2022-11-04T11:42:00.589Z,10.20
2022-11-04T11:44:39.010Z,11.53
2022-11-04T11:47:09.220Z,8.47
2022-11-04T11:49:45.193Z,10.70
2022-11-04T11:52:33.005Z,10.00
2022-11-04T11:55:15.030Z,10.47
2022-11-04T12:01:05.226Z,10.87
2022-11-04T12:09:55.284Z,10.83
2022-11-04T12:12:47.418Z,10.00
2022-11-04T12:15:46.745Z,10.17
2022-11-04T12:18:50.200Z,9.30
2022-11-04T12:21:24.079Z,8.27
2022-11-04T12:24:02.016Z,11.30
2022-11-04T12:26:40.842Z,11.50
2022-11-04T12:29:44.036Z,10.80
2022-11-04T12:32:22.298Z,12.07
2022-11-04T12:35:09.069Z,16.43
2022-11-04T12:37:50.556Z,13.43
2022-11-04T12:40:29.241Z,12.80
2022-11-04T12:43:21.334Z,13.27
2022-11-04T12:46:12.013Z,13.67
2022-11-04T12:49:06.884Z,13.93
2022-11-04T12:51:49.014Z,16.57
2022-11-04T12:54:32.500Z,12.57
2022-11-04T12:57:19.057Z,12.93
2022-11-04T13:00:12.612Z,14.13
2022-11-04T13:02:53.406Z,12.03
2022-11-04T13:05:38.565Z,11.57
2022-11-04T13:08:22.236Z,12.43
2022-11-04T13:10:55.324Z,10.27
2022-11-04T13:13:34.161Z,12.47
2022-11-04T13:16:10.388Z,13.73
2022-11-04T13:18:48.286Z,11.03
2022-11-04T13:21:21.275Z,12.90
2022-11-04T13:24:00.106Z,10.20
2022-11-04T13:26:28.927Z,10.80
2022-11-04T13:29:10.132Z,10.73
2022-11-04T13:31:50.990Z,13.93
2022-11-04T13:34:35.279Z,11.93
2022-11-04T13:37:14.524Z,9.30
2022-11-04T13:39:54.066Z,10.03
2022-11-04T13:42:39.088Z,8.97
2022-11-04T13:45:21.126Z,11.57
2022-11-04T13:47:55.287Z,12.00
2022-11-04T13:50:41.269Z,11.60
2022-11-04T13:53:12.739Z,10.93
2022-11-04T13:56:09.524Z,12.27
2022-11-04T13:58:53.727Z,10.63
2022-11-04T14:01:36.248Z,9.10
2022-11-04T14:04:38.929Z,9.87
2022-11-04T14:07:17.372Z,11.53
2022-11-04T14:09:57.336Z,11.97
2022-11-04T14:12:43.198Z,9.83
2022-11-04T14:15:15.181Z,13.57
2022-11-04T14:18:10.481Z,10.00
2022-11-04T14:21:03.594Z,9.83
2022-11-04T14:23:39.165Z,12.77
2022-11-04T14:26:09.284Z,11.40
2022-11-04T14:28:45.107Z,11.23
2022-11-04T14:31:17.633Z,5.97
2022-11-04T14:34:01.325Z,7.53
2022-11-04T14:36:35.973Z,8.10
2022-11-04T14:39:16.347Z,8.07
2022-11-04T14:41:57.634Z,8.63
2022-11-04T14:44:39.349Z,5.77
2022-11-04T14:47:20.192Z,7.80
2022-11-04T14:49:57.200Z,6.70
2022-11-04T14:52:29.979Z,7.37
2022-11-04T14:55:10.177Z,7.30
2022-11-04T14:57:40.511Z,7.33
2022-11-04T15:00:29.200Z,7.03
2022-11-04T15:04:09.395Z,6.67
2022-11-04T15:06:53.763Z,4.57
2022-11-04T15:09:24.355Z,4.37
2022-11-04T15:12:22.231Z,3.93
2022-11-04T15:14:50.788Z,4.33
2022-11-04T15:17:28.268Z,3.63
2022-11-04T15:19:59.606Z,4.07
2022-11-04T15:22:36.357Z,4.90
2022-11-04T15:25:12.115Z,6.97
2022-11-04T15:27:49.219Z,5.37
2022-11-04T15:30:23.658Z,5.60
2022-11-04T15:33:03.447Z,6.10
2022-11-04T15:35:34.673Z,6.03
2022-11-04T15:38:11.430Z,5.07
2022-11-04T15:40:43.028Z,4.93
2022-11-04T15:43:17.482Z,4.50
2022-11-04T15:45:56.211Z,4.43
2022-11-04T15:48:36.250Z,6.27
2022-11-04T15:51:15.821Z,3.70
2022-11-04T15:54:03.216Z,4.43
2022-11-04T15:56:40.086Z,3.93
2022-11-04T15:59:20.344Z,7.13
2022-11-04T16:01:50.634Z,5.27
2022-11-04T16:04:45.372Z,5.07
2022-11-04T16:07:24.904Z,6.57
2022-11-04T16:10:06.877Z,5.93
2022-11-04T16:12:39.492Z,4.60
2022-11-04T16:15:35.335Z,4.23
2022-11-04T16:18:06.957Z,5.07
2022-11-04T16:20:43.230Z,4.03
2022-11-04T16:23:19.068Z,4.23
2022-11-04T16:25:54.365Z,7.13
2022-11-04T16:28:22.809Z,4.33
2022-11-04T16:31:07.256Z,4.87
2022-11-04T16:33:36.823Z,3.70
2022-11-04T16:36:20.332Z,6.47
2022-11-04T16:38:48.538Z,4.53
2022-11-04T16:41:23.298Z,2.90
2022-11-04T16:43:52.228Z,3.93
2022-11-04T16:46:28.290Z,3.63
2022-11-04T16:48:58.105Z,2.00
2022-11-04T16:51:33.333Z,4.23
2022-11-04T16:54:01.536Z,3.83
2022-11-04T16:56:36.327Z,5.03
2022-11-04T16:59:04.687Z,3.37
2022-11-04T17:01:39.426Z,3.13
2022-11-04T17:04:29.299Z,5.00
2022-11-04T17:07:04.283Z,3.70
2022-11-04T17:09:32.483Z,2.20
2022-11-04T17:12:07.290Z,5.13
2022-11-04T17:14:35.513Z,5.60
2022-11-04T17:17:11.286Z,3.57
2022-11-04T17:19:41.136Z,5.13
2022-11-04T17:22:16.365Z,6.03
2022-11-04T17:24:44.946Z,4.33
2022-11-04T17:27:19.606Z,5.57
2022-11-04T17:29:47.808Z,3.90
2022-11-04T17:32:22.332Z,3.73
2022-11-04T17:34:52.635Z,4.50
2022-11-04T17:37:27.360Z,3.90
2022-11-04T17:39:55.622Z,2.80
2022-11-04T17:42:47.558Z,4.30
2022-11-04T17:45:16.044Z,5.30
2022-11-04T17:47:50.355Z,5.97
2022-11-04T17:50:20.709Z,4.30
2022-11-04T17:52:55.338Z,3.80
2022-11-04T17:55:27.459Z,3.40
2022-11-04T17:58:03.360Z,5.33
2022-11-04T18:00:31.776Z,4.67
2022-11-04T18:03:07.785Z,7.70
2022-11-04T18:05:44.074Z,5.20
2022-11-04T18:08:19.523Z,5.53
2022-11-04T18:10:47.656Z,3.97
2022-11-04T18:13:22.314Z,5.60
2022-11-04T18:15:50.699Z,3.83
2022-11-04T18:18:25.410Z,4.20
2022-11-04T18:21:03.751Z,5.37
2022-11-04T18:23:38.448Z,6.70
2022-11-04T18:26:10.080Z,14.17
2022-11-04T18:28:45.381Z,9.70
2022-11-04T18:31:21.324Z,10.30
2022-11-04T18:33:56.416Z,6.93
2022-11-04T18:36:26.446Z,5.83
2022-11-04T18:39:01.393Z,7.23
2022-11-04T18:41:29.842Z,6.27
2022-11-04T18:44:05.563Z,8.13
2022-11-04T18:46:33.864Z,8.73
2022-11-04T18:49:08.385Z,7.80
2022-11-04T18:51:38.402Z,7.47
2022-11-04T18:54:14.620Z,4.97
2022-11-04T18:56:44.483Z,5.03
2022-11-04T18:59:21.407Z,7.37
2022-11-04T19:01:51.321Z,4.60
2022-11-04T19:04:26.578Z,5.37
2022-11-04T19:06:56.602Z,4.73
2022-11-04T19:09:46.221Z,5.77
2022-11-04T19:12:39.450Z,4.50
2022-11-04T19:15:09.060Z,6.30
2022-11-04T19:17:37.677Z,6.00
2022-11-04T19:20:13.416Z,6.87
2022-11-04T19:22:43.133Z,7.93
2022-11-04T19:25:18.462Z,7.50
2022-11-04T19:28:18.539Z,5.73
2022-11-04T19:30:43.240Z,5.83
2022-11-04T19:33:18.618Z,9.37
2022-11-04T19:35:46.998Z,8.87
2022-11-04T19:38:24.939Z,7.40
2022-11-04T19:40:53.797Z,9.00
2022-11-04T19:43:29.759Z,11.33
2022-11-04T19:46:04.466Z,11.77
2022-11-04T19:48:39.663Z,11.00
2022-11-04T19:51:13.660Z,8.70
2022-11-04T19:53:49.534Z,6.23
2022-11-04T19:56:19.157Z,6.60
2022-11-04T19:58:55.524Z,7.73
2022-11-04T20:01:24.431Z,7.63
2022-11-04T20:04:06.511Z,8.90
2022-11-04T20:06:41.674Z,6.90
2022-11-04T20:09:19.623Z,8.40
2022-11-04T20:12:05.302Z,7.50
2022-11-04T20:14:40.518Z,8.37
2022-11-04T20:17:08.757Z,11.23
2022-11-04T20:19:43.466Z,9.70
2022-11-04T20:22:12.017Z,9.63
2022-11-04T20:24:48.423Z,8.63
2022-11-04T20:27:17.188Z,7.97
2022-11-04T20:29:52.824Z,8.70
2022-11-04T20:32:21.204Z,9.33
2022-11-04T20:34:56.504Z,7.97
2022-11-04T20:37:25.748Z,6.40
2022-11-04T20:40:02.567Z,8.03
2022-11-04T20:42:30.888Z,12.07
2022-11-04T20:45:06.520Z,10.73
2022-11-04T20:47:36.200Z,7.33
2022-11-04T20:50:11.583Z,8.40
2022-11-04T20:52:40.099Z,9.43
2022-11-04T20:55:18.524Z,9.77
2022-11-04T20:57:47.145Z,10.47
2022-11-04T21:00:22.580Z,9.63
2022-11-04T21:02:51.357Z,8.03
2022-11-04T21:05:32.566Z,9.40
2022-11-04T21:08:08.234Z,11.43
2022-11-04T21:10:44.839Z,8.90
2022-11-04T21:13:13.045Z,13.40
2022-11-04T21:15:50.594Z,9.07
2022-11-04T21:18:18.925Z,7.43
2022-11-04T21:20:54.514Z,9.73
2022-11-04T21:23:23.206Z,9.40
2022-11-04T21:26:01.725Z,12.17
2022-11-04T21:28:30.016Z,8.87
2022-11-04T21:31:10.641Z,11.13
2022-11-04T21:33:39.661Z,8.40
2022-11-04T21:36:16.539Z,10.20
2022-11-04T21:38:45.710Z,16.77
2022-11-04T21:41:23.552Z,9.73
2022-11-04T21:43:56.133Z,9.63
2022-11-04T21:46:31.507Z,10.80
2022-11-04T21:49:00.948Z,10.53
2022-11-04T21:51:37.723Z,11.23
2022-11-04T21:54:08.038Z,9.67
2022-11-04T21:56:44.589Z,13.47
2022-11-04T21:59:18.161Z,10.37
2022-11-04T22:01:53.628Z,11.40
2022-11-04T22:04:29.033Z,15.60
2022-11-04T22:07:09.561Z,11.00
2022-11-04T22:09:38.244Z,11.67
2022-11-04T22:12:14.585Z,9.27
2022-11-04T22:14:42.927Z,12.23
2022-11-04T22:17:17.767Z,10.90
2022-11-04T22:19:47.625Z,10.87
2022-11-04T22:22:22.765Z,11.27
2022-11-04T22:25:03.163Z,12.77
2022-11-04T22:27:39.622Z,12.63
2022-11-04T22:30:09.952Z,9.27
2022-11-04T22:32:44.603Z,12.57
2022-11-04T22:35:12.754Z,12.43
2022-11-04T22:37:47.744Z,10.27
2022-11-04T22:40:16.087Z,13.37
2022-11-04T22:42:52.597Z,12.60
2022-11-04T22:45:21.165Z,11.80
2022-11-04T22:47:56.626Z,9.10
2022-11-04T22:50:24.802Z,10.30
2022-11-04T22:52:59.795Z,12.87
2022-11-04T22:55:28.292Z,15.00
2022-11-04T22:58:04.550Z,15.43
2022-11-04T23:00:33.505Z,11.97
2022-11-04T23:03:08.999Z,9.10
2022-11-04T23:05:44.438Z,10.83
2022-11-04T23:08:26.580Z,9.67
2022-11-04T23:11:16.121Z,10.33
2022-11-04T23:14:20.210Z,11.40
2022-11-04T23:17:14.670Z,12.63
2022-11-04T23:19:43.738Z,14.93
2022-11-04T23:22:36.673Z,9.30
2022-11-04T23:25:09.871Z,10.27
2022-11-04T23:28:04.662Z,11.53
2022-11-04T23:30:36.218Z,10.27
2022-11-04T23:33:12.891Z,7.83
2022-11-04T23:36:00.889Z,11.47
2022-11-04T23:38:37.833Z,11.90
2022-11-04T23:41:37.467Z,9.60
2022-11-04T23:44:32.662Z,12.17
2022-11-04T23:47:19.412Z,11.13
2022-11-04T23:50:11.817Z,10.57
2022-11-04T23:52:57.742Z,13.57
2022-11-04T23:55:52.797Z,14.13
2022-11-04T23:58:38.261Z,11.77
